PAL Express DH8D at Mactan on Dec 10th 2021, runway excursion on landing

Last Update: December 10, 2021 / 10:13:51 GMT/Zulu time

Bookmark this article
Incident Facts

Date of incident
Dec 10, 2021

Classification
Incident

Flight number
2P-2369

Aircraft Registration
RP-C5911

ICAO Type Designator
DH8D

Airport ICAO Code
RPVM

A PAL Express de Havilland Dash 8-400, registration RP-C5911 performing flight 2P-2369 from Caticlan to Mactan Cebu (Philippines) with 29 passengers and 4 crew, landed on Mactan's runway 04 at 11:40L (03:40Z) but veered left off the runway and came to a stop with all gear on soft ground. THere were no injuries, the aircraft sustained minor if any damage.

The aircraft was towed off the runway about 2.5 hours after landing.

The airline reported the aircraft swerved off the runway into grass at the side of the runway due to rainy weather causing a partial blockage. All passengers and crew disembarked safely via the aircraft stairs. The aircraft was subsequently towed off the runway.

Metars:
RPVM 100500Z 36012KT 8000 -RA SCT020 OVC080 26/23 Q1009 RMK A2980=
RPVM 100400Z 36012KT 9999 -RA SCT020 OVC090 26/22 Q1011 RMK A2985=
RPVM 100300Z 01015KT 9999 -RA SCT020 OVC100 28/23 Q1011 RMK A2985=
RPVM 100200Z 01015KT 9999 SCT020 OVC100 28/23 Q1011 RMK A2985=
RPVM 100100Z 01015KT 9999 SCT020 OVC100 28/23 Q1011 RMK A2985 VCSH NE=
RPVM 100000Z 01015KT 9999 FEW020 OVC100 28/23 Q1011 RMK A2985=
RPVM 092300Z 01012KT 9999 FEW020 BKN100 27/22 Q1011 RMK A2983=
Incident Facts

Date of incident
Dec 10, 2021

Classification
Incident

Flight number
2P-2369

Aircraft Registration
RP-C5911

ICAO Type Designator
DH8D

Airport ICAO Code
RPVM

This article is published under license from Avherald.com. © of text by Avherald.com.
Article source

You can read 2 more free articles without a subscription.

Subscribe now and continue reading without any limits!

Are you a subscriber? Login
Subscribe

Read unlimited articles and receive our daily update briefing. Gain better insights into what is happening in commercial aviation safety.

Free newsletter

Want to know more and stay ahead? Get our free weekly newsletter and join 5377 existing subscribers.

By subscribing, you accept our terms and conditions and confirm that you've read our privacy policy.

Send tip

Support AeroInside by sending a small tip amount.

Related articles

Newest articles

Subscribe today

Are you researching aviation incidents? Get access to AeroInside Insights, unlimited read access and receive the daily newsletter.

Pick your plan and subscribe

Partner

Blockaviation logo

A new way to document and demonstrate airworthiness compliance and aircraft value. Find out more.

Virtual Speech logo

ELITE Simulation Solutions is a leading global provider of Flight Simulation Training Devices, IFR training software as well as flight controls and related services. Find out more.

Get updates

Never miss an article from AeroInside. Subscribe to our free weekly newsletter and join 5377 existing subscribers.

By subscribing, you accept our terms and conditions and that you've read our privacy policy.

AeroInside Blog
Popular aircraft
Airbus A320
Boeing 737-800
Boeing 737-800 MAX
Popular airlines
American Airlines
United
Delta
Air Canada
Lufthansa
British Airways